sensor_id;sensor_type;location;lat;lon;timestamp;pressure;altitude;pressure_sealevel;temperature;humidity
48210;BME280;33999;52.252;9.616;2022-09-09T00:05:36;99921.53;;;14.17;98.27
48210;BME280;33999;52.252;9.616;2022-09-09T00:12:12;99914.28;;;14.17;97.44
48210;BME280;33999;52.252;9.616;2022-09-09T00:15:22;99909.72;;;14.18;97.25
48210;BME280;33999;52.252;9.616;2022-09-09T00:25:28;99912.28;;;14.19;96.33
48210;BME280;33999;52.252;9.616;2022-09-09T00:28:38;99915.97;;;14.18;96.51
48210;BME280;33999;52.252;9.616;2022-09-09T00:31:41;99914.09;;;14.19;96.77
48210;BME280;33999;52.252;9.616;2022-09-09T00:37:51;99906.50;;;14.14;97.00
48210;BME280;33999;52.252;9.616;2022-09-09T00:44:30;99907.09;;;14.08;97.70
48210;BME280;33999;52.252;9.616;2022-09-09T00:47:45;99902.72;;;14.07;98.04
48210;BME280;33999;52.252;9.616;2022-09-09T00:50:56;99906.38;;;14.06;98.00
48210;BME280;33999;52.252;9.616;2022-09-09T00:54:28;99912.09;;;14.03;98.09
48210;BME280;33999;52.252;9.616;2022-09-09T00:57:36;99910.94;;;14.05;98.21
48210;BME280;33999;52.252;9.616;2022-09-09T01:07:01;99908.25;;;14.05;98.18
48210;BME280;33999;52.252;9.616;2022-09-09T01:10:20;99910.25;;;14.03;98.27
48210;BME280;33999;52.252;9.616;2022-09-09T01:13:29;99907.41;;;14.05;98.01
48210;BME280;33999;52.252;9.616;2022-09-09T01:16:37;99901.88;;;14.06;98.17
48210;BME280;33999;52.252;9.616;2022-09-09T01:23:09;99907.41;;;14.05;97.72
48210;BME280;33999;52.252;9.616;2022-09-09T01:26:19;99901.63;;;14.00;96.66
48210;BME280;33999;52.252;9.616;2022-09-09T01:29:24;99896.34;;;13.98;96.41
48210;BME280;33999;52.252;9.616;2022-09-09T01:32:46;99896.22;;;14.00;96.38
48210;BME280;33999;52.252;9.616;2022-09-09T01:35:55;99898.91;;;14.00;96.07
48210;BME280;33999;52.252;9.616;2022-09-09T01:39:04;99895.53;;;13.98;96.34
48210;BME280;33999;52.252;9.616;2022-09-09T01:42:09;99896.69;;;13.95;96.90
48210;BME280;33999;52.252;9.616;2022-09-09T01:45:11;99895.97;;;13.93;96.96
48210;BME280;33999;52.252;9.616;2022-09-09T01:48:13;99904.25;;;13.91;97.26
48210;BME280;33999;52.252;9.616;2022-09-09T01:51:21;99904.38;;;13.90;96.87
48210;BME280;33999;52.252;9.616;2022-09-09T01:54:27;99901.69;;;13.90;96.53
48210;BME280;33999;52.252;9.616;2022-09-09T01:57:34;99900.84;;;13.89;97.23
48210;BME280;33999;52.252;9.616;2022-09-09T02:00:45;99907.78;;;13.92;96.86
48210;BME280;33999;52.252;9.616;2022-09-09T02:03:53;99906.25;;;13.89;95.75
48210;BME280;33999;52.252;9.616;2022-09-09T02:06:57;99913.50;;;13.89;95.38
48210;BME280;33999;52.252;9.616;2022-09-09T02:10:10;99912.94;;;13.85;95.47
48210;BME280;33999;52.252;9.616;2022-09-09T02:13:22;99903.47;;;13.81;96.87
48210;BME280;33999;52.252;9.616;2022-09-09T02:16:39;99911.56;;;13.81;96.95
48210;BME280;33999;52.252;9.616;2022-09-09T02:19:48;99907.16;;;13.80;97.22
48210;BME280;33999;52.252;9.616;2022-09-09T02:23:00;99906.00;;;13.83;97.02
48210;BME280;33999;52.252;9.616;2022-09-09T02:26:03;99901.09;;;13.78;97.15
48210;BME280;33999;52.252;9.616;2022-09-09T02:29:12;99903.78;;;13.78;97.57
48210;BME280;33999;52.252;9.616;2022-09-09T02:32:22;99908.16;;;13.79;96.81
48210;BME280;33999;52.252;9.616;2022-09-09T02:35:27;99902.91;;;13.78;97.10
48210;BME280;33999;52.252;9.616;2022-09-09T02:38:32;99897.50;;;13.78;96.88
48210;BME280;33999;52.252;9.616;2022-09-09T02:41:43;99896.53;;;13.79;96.97
48210;BME280;33999;52.252;9.616;2022-09-09T02:44:45;99907.72;;;13.84;97.21
48210;BME280;33999;52.252;9.616;2022-09-09T02:48:07;99902.84;;;13.87;97.20
48210;BME280;33999;52.252;9.616;2022-09-09T02:54:36;99899.31;;;13.87;98.52
48210;BME280;33999;52.252;9.616;2022-09-09T02:57:45;99897.63;;;13.86;98.39
48210;BME280;33999;52.252;9.616;2022-09-09T03:00:50;99897.63;;;13.86;98.88
48210;BME280;33999;52.252;9.616;2022-09-09T03:03:53;99909.78;;;13.90;98.87
48210;BME280;33999;52.252;9.616;2022-09-09T03:06:58;99903.53;;;13.89;99.21
48210;BME280;33999;52.252;9.616;2022-09-09T03:10:01;99910.81;;;13.89;99.63
48210;BME280;33999;52.252;9.616;2022-09-09T03:13:03;99918.91;;;13.89;99.68
48210;BME280;33999;52.252;9.616;2022-09-09T03:16:11;99918.91;;;13.89;99.68
48210;BME280;33999;52.252;9.616;2022-09-09T03:19:18;99914.34;;;13.89;99.23
48210;BME280;33999;52.252;9.616;2022-09-09T03:22:20;99912.50;;;13.90;99.65
48210;BME280;33999;52.252;9.616;2022-09-09T03:25:23;99917.88;;;13.90;99.43
48210;BME280;33999;52.252;9.616;2022-09-09T03:28:27;99913.66;;;13.87;99.70
48210;BME280;33999;52.252;9.616;2022-09-09T03:31:34;99910.94;;;13.87;99.56
48210;BME280;33999;52.252;9.616;2022-09-09T03:34:37;99911.66;;;13.89;99.89
48210;BME280;33999;52.252;9.616;2022-09-09T03:37:45;99904.38;;;13.90;99.93
48210;BME280;33999;52.252;9.616;2022-09-09T03:40:50;99910.81;;;13.89;99.95
48210;BME280;33999;52.252;9.616;2022-09-09T03:43:53;99916.72;;;13.92;100.00
48210;BME280;33999;52.252;9.616;2022-09-09T03:46:57;99904.56;;;13.88;100.00
48210;BME280;33999;52.252;9.616;2022-09-09T03:49:59;99913.50;;;13.89;100.00
48210;BME280;33999;52.252;9.616;2022-09-09T03:53:02;99903.53;;;13.89;100.00
48210;BME280;33999;52.252;9.616;2022-09-09T03:56:05;99895.44;;;13.89;100.00
48210;BME280;33999;52.252;9.616;2022-09-09T03:59:08;99895.59;;;13.88;100.00
48210;BME280;33999;52.252;9.616;2022-09-09T04:02:10;99893.44;;;13.91;100.00
48210;BME280;33999;52.252;9.616;2022-09-09T04:05:12;99898.53;;;13.95;100.00
48210;BME280;33999;52.252;9.616;2022-09-09T04:08:16;99897.38;;;13.97;99.88
48210;BME280;33999;52.252;9.616;2022-09-09T04:11:18;99899.06;;;13.98;99.91
48210;BME280;33999;52.252;9.616;2022-09-09T04:14:21;99904.19;;;14.01;99.84
48210;BME280;33999;52.252;9.616;2022-09-09T04:17:23;99906.00;;;14.01;99.92
48210;BME280;33999;52.252;9.616;2022-09-09T04:20:25;99901.31;;;14.03;99.44
48210;BME280;33999;52.252;9.616;2022-09-09T04:23:28;99910.09;;;14.05;99.65
48210;BME280;33999;52.252;9.616;2022-09-09T04:26:34;99912.94;;;14.03;99.96
48210;BME280;33999;52.252;9.616;2022-09-09T04:29:36;99908.69;;;14.01;99.88
48210;BME280;33999;52.252;9.616;2022-09-09T04:32:37;99912.09;;;14.03;99.66
48210;BME280;33999;52.252;9.616;2022-09-09T04:35:45;99906.38;;;14.06;99.05
48210;BME280;33999;52.252;9.616;2022-09-09T04:38:48;99910.09;;;14.05;99.43
48210;BME280;33999;52.252;9.616;2022-09-09T04:41:51;99909.09;;;14.06;99.49
48210;BME280;33999;52.252;9.616;2022-09-09T04:44:52;99909.09;;;14.06;99.93
48210;BME280;33999;52.252;9.616;2022-09-09T04:47:54;99909.25;;;14.04;99.77
48210;BME280;33999;52.252;9.616;2022-09-09T04:51:01;99908.94;;;14.07;99.43
48210;BME280;33999;52.252;9.616;2022-09-09T04:54:05;99919.06;;;14.05;99.47
48210;BME280;33999;52.252;9.616;2022-09-09T04:57:07;99910.94;;;14.05;99.63
48210;BME280;33999;52.252;9.616;2022-09-09T05:00:10;99914.50;;;14.06;99.78
48210;BME280;33999;52.252;9.616;2022-09-09T05:03:14;99917.56;;;14.11;99.15
48210;BME280;33999;52.252;9.616;2022-09-09T05:06:18;99914.72;;;14.12;98.76
48210;BME280;33999;52.252;9.616;2022-09-09T05:09:23;99915.44;;;14.14;98.79
48210;BME280;33999;52.252;9.616;2022-09-09T05:12:25;99923.38;;;14.16;98.88
48210;BME280;33999;52.252;9.616;2022-09-09T05:15:27;99927.59;;;14.19;98.37
48210;BME280;33999;52.252;9.616;2022-09-09T05:18:29;99931.84;;;14.21;98.58
48210;BME280;33999;52.252;9.616;2022-09-09T05:21:31;99933.41;;;14.24;98.35
48210;BME280;33999;52.252;9.616;2022-09-09T05:24:33;99936.97;;;14.24;98.40
48210;BME280;33999;52.252;9.616;2022-09-09T05:27:36;99935.81;;;14.27;97.92
48210;BME280;33999;52.252;9.616;2022-09-09T05:30:39;99939.88;;;14.31;98.35
48210;BME280;33999;52.252;9.616;2022-09-09T05:33:42;99939.72;;;14.32;98.11
48210;BME280;33999;52.252;9.616;2022-09-09T05:36:44;99938.03;;;14.31;98.04
48210;BME280;33999;52.252;9.616;2022-09-09T05:39:46;99937.88;;;14.33;98.45
48210;BME280;33999;52.252;9.616;2022-09-09T05:42:48;99942.44;;;14.32;98.40
48210;BME280;33999;52.252;9.616;2022-09-09T05:46:04;99952.63;;;14.39;98.42
48210;BME280;33999;52.252;9.616;2022-09-09T05:49:07;99949.59;;;14.42;98.13
48210;BME280;33999;52.252;9.616;2022-09-09T05:52:10;99953.69;;;14.46;98.06
48210;BME280;33999;52.252;9.616;2022-09-09T05:55:13;99946.28;;;14.48;97.85
48210;BME280;33999;52.252;9.616;2022-09-09T05:58:15;99952.22;;;14.51;97.81
48210;BME280;33999;52.252;9.616;2022-09-09T06:01:21;99948.06;;;14.57;97.62
48210;BME280;33999;52.252;9.616;2022-09-09T06:04:23;99941.66;;;14.58;97.42
48210;BME280;33999;52.252;9.616;2022-09-09T06:07:26;99957.41;;;14.63;97.31
48210;BME280;33999;52.252;9.616;2022-09-09T06:10:28;99952.84;;;14.63;97.42
48210;BME280;33999;52.252;9.616;2022-09-09T06:13:30;99953.06;;;14.70;97.57
48210;BME280;33999;52.252;9.616;2022-09-09T06:16:33;99949.19;;;14.72;98.03
48210;BME280;33999;52.252;9.616;2022-09-09T06:19:35;99946.66;;;14.71;99.00
48210;BME280;33999;52.252;9.616;2022-09-09T06:22:39;99950.72;;;14.75;98.60
48210;BME280;33999;52.252;9.616;2022-09-09T06:25:42;99952.06;;;14.71;99.48
48210;BME280;33999;52.252;9.616;2022-09-09T06:28:47;99952.91;;;14.71;100.00
48210;BME280;33999;52.252;9.616;2022-09-09T06:31:49;99953.94;;;14.70;100.00
48210;BME280;33999;52.252;9.616;2022-09-09T06:34:55;99945.81;;;14.70;99.96
48210;BME280;33999;52.252;9.616;2022-09-09T06:37:56;99943.31;;;14.77;100.00
48210;BME280;33999;52.252;9.616;2022-09-09T06:41:00;99944.38;;;14.84;99.93
48210;BME280;33999;52.252;9.616;2022-09-09T06:44:03;99938.19;;;14.92;99.08
48210;BME280;33999;52.252;9.616;2022-09-09T06:47:13;99935.53;;;15.00;98.76
48210;BME280;33999;52.252;9.616;2022-09-09T06:50:16;99948.13;;;15.17;98.27
48210;BME280;33999;52.252;9.616;2022-09-09T06:53:19;99940.78;;;15.36;97.11
48210;BME280;33999;52.252;9.616;2022-09-09T06:56:35;99940.06;;;15.60;95.72
48210;BME280;33999;52.252;9.616;2022-09-09T06:59:42;99938.59;;;15.74;95.12
48210;BME280;33999;52.252;9.616;2022-09-09T07:02:44;99943.19;;;15.81;94.58
48210;BME280;33999;52.252;9.616;2022-09-09T07:05:56;99948.44;;;15.83;93.09
48210;BME280;33999;52.252;9.616;2022-09-09T07:09:08;99943.38;;;15.88;93.03
48210;BME280;33999;52.252;9.616;2022-09-09T07:12:13;99945.41;;;15.86;92.02
48210;BME280;33999;52.252;9.616;2022-09-09T07:15:22;99952.34;;;15.89;91.81
48210;BME280;33999;52.252;9.616;2022-09-09T07:18:24;99948.63;;;15.90;92.07
48210;BME280;33999;52.252;9.616;2022-09-09T07:21:28;99952.56;;;15.95;91.71
48210;BME280;33999;52.252;9.616;2022-09-09T07:24:30;99952.22;;;15.98;91.80
48210;BME280;33999;52.252;9.616;2022-09-09T07:27:32;99944.59;;;16.10;90.54
48210;BME280;33999;52.252;9.616;2022-09-09T07:30:34;99947.69;;;16.23;90.77
48210;BME280;33999;52.252;9.616;2022-09-09T07:33:36;99952.28;;;16.39;89.89
48210;BME280;33999;52.252;9.616;2022-09-09T07:36:40;99950.38;;;16.56;88.75
48210;BME280;33999;52.252;9.616;2022-09-09T07:39:46;99960.22;;;16.73;86.30
48210;BME280;33999;52.252;9.616;2022-09-09T07:42:48;99956.31;;;16.76;86.26
48210;BME280;33999;52.252;9.616;2022-09-09T07:45:57;99957.03;;;16.86;85.29
48210;BME280;33999;52.252;9.616;2022-09-09T07:48:59;99962.28;;;16.96;85.39
48210;BME280;33999;52.252;9.616;2022-09-09T07:52:04;99955.59;;;17.23;84.67
48210;BME280;33999;52.252;9.616;2022-09-09T07:55:07;99957.25;;;17.32;84.14
48210;BME280;33999;52.252;9.616;2022-09-09T07:58:09;99961.66;;;17.42;82.97
48210;BME280;33999;52.252;9.616;2022-09-09T08:01:23;99967.38;;;17.55;82.25
48210;BME280;33999;52.252;9.616;2022-09-09T08:04:26;99972.44;;;17.58;80.69
48210;BME280;33999;52.252;9.616;2022-09-09T08:07:29;99962.81;;;17.47;81.64
48210;BME280;33999;52.252;9.616;2022-09-09T08:10:32;99967.44;;;17.38;82.49
48210;BME280;33999;52.252;9.616;2022-09-09T08:13:38;99979.81;;;17.33;83.32
48210;BME280;33999;52.252;9.616;2022-09-09T08:16:43;99974.59;;;17.23;83.91
48210;BME280;33999;52.252;9.616;2022-09-09T08:19:47;99985.81;;;17.12;83.35
48210;BME280;33999;52.252;9.616;2022-09-09T08:22:55;99972.09;;;17.05;84.41
48210;BME280;33999;52.252;9.616;2022-09-09T08:26:03;99980.03;;;17.07;84.37
48210;BME280;33999;52.252;9.616;2022-09-09T08:29:07;99982.94;;;17.05;84.41
48210;BME280;33999;52.252;9.616;2022-09-09T08:32:09;99973.78;;;17.06;84.51
48210;BME280;33999;52.252;9.616;2022-09-09T08:35:13;99969.53;;;17.12;84.03
48210;BME280;33999;52.252;9.616;2022-09-09T08:38:15;99984.13;;;17.11;84.43
48210;BME280;33999;52.252;9.616;2022-09-09T08:44:59;99992.72;;;17.23;84.22
48210;BME280;33999;52.252;9.616;2022-09-09T08:48:08;99990.88;;;17.31;83.95
48210;BME280;33999;52.252;9.616;2022-09-09T08:51:15;100001.69;;;17.39;81.84
48210;BME280;33999;52.252;9.616;2022-09-09T08:54:18;99999.31;;;17.45;81.62
48210;BME280;33999;52.252;9.616;2022-09-09T08:57:40;99999.59;;;17.58;81.60
48210;BME280;33999;52.252;9.616;2022-09-09T09:00:51;99993.97;;;17.68;81.28
48210;BME280;33999;52.252;9.616;2022-09-09T09:04:21;100000.06;;;17.70;80.26
48210;BME280;33999;52.252;9.616;2022-09-09T09:07:39;100004.78;;;17.76;80.76
48210;BME280;33999;52.252;9.616;2022-09-09T09:10:50;100015.28;;;17.79;79.06
48210;BME280;33999;52.252;9.616;2022-09-09T09:17:25;100009.88;;;17.87;78.98
48210;BME280;33999;52.252;9.616;2022-09-09T09:20:42;100017.84;;;17.89;79.34
48210;BME280;33999;52.252;9.616;2022-09-09T09:24:00;100018.03;;;17.87;78.82
48210;BME280;33999;52.252;9.616;2022-09-09T09:27:13;100019.34;;;17.91;79.27
48210;BME280;33999;52.252;9.616;2022-09-09T09:30:25;100008.75;;;18.04;78.67
48210;BME280;33999;52.252;9.616;2022-09-09T09:36:46;100006.09;;;18.51;76.89
48210;BME280;33999;52.252;9.616;2022-09-09T09:39:54;100004.22;;;18.74;74.93
48210;BME280;33999;52.252;9.616;2022-09-09T09:43:06;100006.94;;;18.97;74.16
48210;BME280;33999;52.252;9.616;2022-09-09T09:46:20;100006.94;;;19.12;73.75
48210;BME280;33999;52.252;9.616;2022-09-09T09:49:25;100006.19;;;19.03;72.73
48210;BME280;33999;52.252;9.616;2022-09-09T09:52:29;100002.44;;;18.89;72.80
48210;BME280;33999;52.252;9.616;2022-09-09T09:55:35;100002.34;;;18.75;74.66
48210;BME280;33999;52.252;9.616;2022-09-09T10:01:47;99999.56;;;18.60;75.99
48210;BME280;33999;52.252;9.616;2022-09-09T10:05:00;100006.03;;;18.59;76.17
48210;BME280;33999;52.252;9.616;2022-09-09T10:08:15;99999.94;;;18.57;74.26
48210;BME280;33999;52.252;9.616;2022-09-09T10:18:00;99993.34;;;18.51;76.51
48210;BME280;33999;52.252;9.616;2022-09-09T10:31:34;99986.44;;;18.40;76.11
48210;BME280;33999;52.252;9.616;2022-09-09T10:34:56;99979.69;;;18.36;75.73
48210;BME280;33999;52.252;9.616;2022-09-09T10:38:10;99985.72;;;18.46;75.35
48210;BME280;33999;52.252;9.616;2022-09-09T10:41:39;99982.13;;;18.77;76.90
48210;BME280;33999;52.252;9.616;2022-09-09T10:51:45;99997.84;;;19.20;78.42
48210;BME280;33999;52.252;9.616;2022-09-09T10:57:58;100023.00;;;18.38;80.98
48210;BME280;33999;52.252;9.616;2022-09-09T11:01:09;100056.28;;;17.61;81.36
48210;BME280;33999;52.252;9.616;2022-09-09T11:04:22;100052.47;;;16.82;81.88
48210;BME280;33999;52.252;9.616;2022-09-09T11:07:42;100036.16;;;15.90;87.60
48210;BME280;33999;52.252;9.616;2022-09-09T11:14:09;100034.38;;;15.20;93.90
48210;BME280;33999;52.252;9.616;2022-09-09T11:17:36;100053.31;;;14.76;95.26
48210;BME280;33999;52.252;9.616;2022-09-09T11:20:46;100084.56;;;14.43;100.00
48210;BME280;33999;52.252;9.616;2022-09-09T11:23:56;100057.25;;;14.19;100.00
48210;BME280;33999;52.252;9.616;2022-09-09T11:27:13;100037.03;;;14.05;100.00
48210;BME280;33999;52.252;9.616;2022-09-09T11:30:22;100030.84;;;13.95;100.00
48210;BME280;33999;52.252;9.616;2022-09-09T11:34:08;100030.53;;;13.98;100.00
48210;BME280;33999;52.252;9.616;2022-09-09T11:40:24;100011.72;;;14.06;100.00
48210;BME280;33999;52.252;9.616;2022-09-09T11:43:31;100009.88;;;14.06;100.00
48210;BME280;33999;52.252;9.616;2022-09-09T11:46:36;100006.88;;;14.09;100.00
48210;BME280;33999;52.252;9.616;2022-09-09T11:49:41;100008.03;;;14.07;100.00
48210;BME280;33999;52.252;9.616;2022-09-09T11:52:45;100001.88;;;14.14;100.00
48210;BME280;33999;52.252;9.616;2022-09-09T11:55:48;100001.56;;;14.18;100.00
48210;BME280;33999;52.252;9.616;2022-09-09T11:59:03;99995.31;;;14.35;100.00
48210;BME280;33999;52.252;9.616;2022-09-09T12:02:15;99983.56;;;14.62;100.00
48210;BME280;33999;52.252;9.616;2022-09-09T12:05:20;99977.06;;;14.91;100.00
48210;BME280;33999;52.252;9.616;2022-09-09T12:08:27;99986.53;;;15.21;100.00
48210;BME280;33999;52.252;9.616;2022-09-09T12:11:30;99984.81;;;15.46;100.00
48210;BME280;33999;52.252;9.616;2022-09-09T12:14:38;99978.97;;;15.67;100.00
48210;BME280;33999;52.252;9.616;2022-09-09T12:17:49;99983.81;;;15.81;100.00
48210;BME280;33999;52.252;9.616;2022-09-09T12:21:03;99987.25;;;16.00;100.00
48210;BME280;33999;52.252;9.616;2022-09-09T12:24:11;99980.53;;;16.20;100.00
48210;BME280;33999;52.252;9.616;2022-09-09T12:27:30;99993.78;;;16.48;100.00
48210;BME280;33999;52.252;9.616;2022-09-09T12:34:10;99986.72;;;16.80;100.00
48210;BME280;33999;52.252;9.616;2022-09-09T12:43:25;99989.91;;;16.91;100.00
48210;BME280;33999;52.252;9.616;2022-09-09T12:46:45;99992.09;;;16.96;100.00
48210;BME280;33999;52.252;9.616;2022-09-09T12:49:48;99996.19;;;17.00;100.00
48210;BME280;33999;52.252;9.616;2022-09-09T12:52:53;99985.31;;;17.08;100.00
48210;BME280;33999;52.252;9.616;2022-09-09T12:56:01;99981.75;;;17.16;99.86
48210;BME280;33999;52.252;9.616;2022-09-09T12:59:04;99981.22;;;17.21;99.64
48210;BME280;33999;52.252;9.616;2022-09-09T13:02:32;99981.22;;;17.21;99.36
48210;BME280;33999;52.252;9.616;2022-09-09T13:05:36;99983.41;;;17.17;99.46
48210;BME280;33999;52.252;9.616;2022-09-09T13:08:38;99967.50;;;17.14;99.33
48210;BME280;33999;52.252;9.616;2022-09-09T13:11:42;99977.84;;;17.10;99.08
48210;BME280;33999;52.252;9.616;2022-09-09T13:14:51;99977.53;;;17.05;99.80
48210;BME280;33999;52.252;9.616;2022-09-09T13:17:57;99984.31;;;17.01;100.00
48210;BME280;33999;52.252;9.616;2022-09-09T13:21:00;99986.66;;;17.04;100.00
48210;BME280;33999;52.252;9.616;2022-09-09T13:24:02;99990.91;;;17.07;100.00
48210;BME280;33999;52.252;9.616;2022-09-09T13:27:24;99983.78;;;17.14;100.00
48210;BME280;33999;52.252;9.616;2022-09-09T13:30:32;99968.16;;;17.16;100.00
48210;BME280;33999;52.252;9.616;2022-09-09T13:33:36;99964.94;;;17.21;100.00
48210;BME280;33999;52.252;9.616;2022-09-09T13:36:39;99960.81;;;17.41;100.00
48210;BME280;33999;52.252;9.616;2022-09-09T13:39:51;99963.59;;;17.64;99.90
48210;BME280;33999;52.252;9.616;2022-09-09T13:42:57;99957.50;;;17.62;100.00
48210;BME280;33999;52.252;9.616;2022-09-09T13:46:01;99943.19;;;17.68;99.56
48210;BME280;33999;52.252;9.616;2022-09-09T13:52:10;99943.19;;;17.68;96.86
48210;BME280;33999;52.252;9.616;2022-09-09T13:55:13;99937.59;;;17.70;96.63
48210;BME280;33999;52.252;9.616;2022-09-09T13:58:16;99945.22;;;17.74;95.33
48210;BME280;33999;52.252;9.616;2022-09-09T14:01:19;99931.81;;;17.73;95.58
48210;BME280;33999;52.252;9.616;2022-09-09T14:04:21;99934.16;;;17.76;95.75
48210;BME280;33999;52.252;9.616;2022-09-09T14:07:23;99929.06;;;17.81;96.00
48210;BME280;33999;52.252;9.616;2022-09-09T14:10:26;99936.84;;;17.92;96.14
48210;BME280;33999;52.252;9.616;2022-09-09T14:13:28;99934.84;;;18.09;95.86
48210;BME280;33999;52.252;9.616;2022-09-09T14:16:30;99934.06;;;18.23;94.70
48210;BME280;33999;52.252;9.616;2022-09-09T14:19:31;99928.03;;;18.36;93.92
48210;BME280;33999;52.252;9.616;2022-09-09T14:22:33;99918.41;;;18.49;91.91
48210;BME280;33999;52.252;9.616;2022-09-09T14:25:35;99917.78;;;18.61;89.78
48210;BME280;33999;52.252;9.616;2022-09-09T14:28:37;99910.41;;;18.70;89.49
48210;BME280;33999;52.252;9.616;2022-09-09T14:31:55;99913.94;;;18.71;88.43
48210;BME280;33999;52.252;9.616;2022-09-09T14:34:57;99907.22;;;18.66;86.93
48210;BME280;33999;52.252;9.616;2022-09-09T14:37:59;99920.22;;;18.71;87.36
48210;BME280;33999;52.252;9.616;2022-09-09T14:41:02;99919.34;;;18.79;84.28
48210;BME280;33999;52.252;9.616;2022-09-09T14:44:04;99917.66;;;18.78;84.83
48210;BME280;33999;52.252;9.616;2022-09-09T14:47:07;99914.63;;;18.73;82.02
48210;BME280;33999;52.252;9.616;2022-09-09T14:50:09;99906.63;;;18.71;82.65
48210;BME280;33999;52.252;9.616;2022-09-09T14:53:11;99914.03;;;18.62;80.68
48210;BME280;33999;52.252;9.616;2022-09-09T14:56:16;99909.34;;;18.56;83.00
48210;BME280;33999;52.252;9.616;2022-09-09T14:59:18;99912.47;;;18.45;82.80
48210;BME280;33999;52.252;9.616;2022-09-09T15:02:20;99907.41;;;18.42;81.96
48210;BME280;33999;52.252;9.616;2022-09-09T15:05:22;99906.66;;;18.48;82.65
48210;BME280;33999;52.252;9.616;2022-09-09T15:08:24;99908.00;;;18.52;83.02
48210;BME280;33999;52.252;9.616;2022-09-09T15:11:29;99912.81;;;18.65;83.39
48210;BME280;33999;52.252;9.616;2022-09-09T15:14:31;99915.47;;;18.73;84.46
48210;BME280;33999;52.252;9.616;2022-09-09T15:17:34;99913.44;;;18.75;85.70
48210;BME280;33999;52.252;9.616;2022-09-09T15:20:36;99917.66;;;18.78;85.61
48210;BME280;33999;52.252;9.616;2022-09-09T15:23:41;99917.34;;;18.73;85.96
48210;BME280;33999;52.252;9.616;2022-09-09T15:26:43;99908.03;;;18.67;85.45
48210;BME280;33999;52.252;9.616;2022-09-09T15:29:45;99909.81;;;18.60;85.50
48210;BME280;33999;52.252;9.616;2022-09-09T15:32:48;99906.25;;;18.59;85.44
48210;BME280;33999;52.252;9.616;2022-09-09T15:35:49;99902.31;;;18.62;85.36
48210;BME280;33999;52.252;9.616;2022-09-09T15:38:52;99900.59;;;18.61;85.79
48210;BME280;33999;52.252;9.616;2022-09-09T15:41:54;99903.53;;;18.59;84.44
48210;BME280;33999;52.252;9.616;2022-09-09T15:44:56;99908.75;;;18.61;81.85
48210;BME280;33999;52.252;9.616;2022-09-09T15:47:59;99911.50;;;18.61;81.13
48210;BME280;33999;52.252;9.616;2022-09-09T15:51:04;99904.53;;;18.58;82.37
48210;BME280;33999;52.252;9.616;2022-09-09T15:54:26;99915.50;;;18.50;83.16
48210;BME280;33999;52.252;9.616;2022-09-09T15:57:28;99907.59;;;18.40;84.14
48210;BME280;33999;52.252;9.616;2022-09-09T16:00:29;99910.69;;;18.37;84.83
48210;BME280;33999;52.252;9.616;2022-09-09T16:03:39;99910.88;;;18.36;85.29
48210;BME280;33999;52.252;9.616;2022-09-09T16:06:46;99917.81;;;18.38;85.23
48210;BME280;33999;52.252;9.616;2022-09-09T16:09:48;99912.19;;;18.40;85.63
48210;BME280;33999;52.252;9.616;2022-09-09T16:12:52;99924.94;;;18.39;86.39
48210;BME280;33999;52.252;9.616;2022-09-09T16:15:54;99917.16;;;18.36;86.38
48210;BME280;33999;52.252;9.616;2022-09-09T16:18:59;99922.75;;;18.35;87.03
48210;BME280;33999;52.252;9.616;2022-09-09T16:22:01;99920.13;;;18.27;88.50
48210;BME280;33999;52.252;9.616;2022-09-09T16:25:04;99914.75;;;18.18;89.85
48210;BME280;33999;52.252;9.616;2022-09-09T16:28:06;99914.13;;;18.08;91.09
48210;BME280;33999;52.252;9.616;2022-09-09T16:31:18;99912.69;;;17.97;93.53
48210;BME280;33999;52.252;9.616;2022-09-09T16:34:21;99904.94;;;17.86;94.46
48210;BME280;33999;52.252;9.616;2022-09-09T16:37:23;99905.78;;;17.78;95.38
48210;BME280;33999;52.252;9.616;2022-09-09T16:40:25;99902.75;;;17.73;95.42
48210;BME280;33999;52.252;9.616;2022-09-09T16:43:27;99904.50;;;17.66;94.38
48210;BME280;33999;52.252;9.616;2022-09-09T16:46:30;99913.19;;;17.62;94.14
48210;BME280;33999;52.252;9.616;2022-09-09T16:49:33;99918.31;;;17.56;94.27
48210;BME280;33999;52.252;9.616;2022-09-09T16:52:35;99918.00;;;17.51;94.63
48210;BME280;33999;52.252;9.616;2022-09-09T16:55:40;99920.88;;;17.50;94.76
48210;BME280;33999;52.252;9.616;2022-09-09T16:58:43;99921.06;;;17.48;95.25
48210;BME280;33999;52.252;9.616;2022-09-09T17:01:49;99928.03;;;17.43;95.55
48210;BME280;33999;52.252;9.616;2022-09-09T17:04:50;99927.72;;;17.37;94.62
48210;BME280;33999;52.252;9.616;2022-09-09T17:07:53;99930.47;;;17.29;92.49
48210;BME280;33999;52.252;9.616;2022-09-09T17:10:57;99948.78;;;17.27;89.72
48210;BME280;33999;52.252;9.616;2022-09-09T17:13:59;99951.19;;;17.22;87.24
48210;BME280;33999;52.252;9.616;2022-09-09T17:17:01;99936.94;;;17.20;87.03
48210;BME280;33999;52.252;9.616;2022-09-09T17:20:23;99940.31;;;17.22;88.02
48210;BME280;33999;52.252;9.616;2022-09-09T17:23:25;99942.34;;;17.20;89.56
48210;BME280;33999;52.252;9.616;2022-09-09T17:26:30;99946.09;;;17.19;90.78
48210;BME280;33999;52.252;9.616;2022-09-09T17:29:32;99941.19;;;17.14;91.61
48210;BME280;33999;52.252;9.616;2022-09-09T17:32:33;99937.31;;;17.09;92.07
48210;BME280;33999;52.252;9.616;2022-09-09T17:35:36;99946.47;;;17.00;92.43
48210;BME280;33999;52.252;9.616;2022-09-09T17:38:38;99944.97;;;16.89;93.03
48210;BME280;33999;52.252;9.616;2022-09-09T17:41:40;99951.25;;;16.81;95.07
48210;BME280;33999;52.252;9.616;2022-09-09T17:44:42;99946.50;;;16.75;95.90
48210;BME280;33999;52.252;9.616;2022-09-09T17:47:43;99953.63;;;16.68;96.71
48210;BME280;33999;52.252;9.616;2022-09-09T17:50:45;99952.78;;;16.67;97.46
48210;BME280;33999;52.252;9.616;2022-09-09T17:53:49;99950.06;;;16.59;97.91
48210;BME280;33999;52.252;9.616;2022-09-09T17:56:50;99955.81;;;16.56;98.88